createdAt,value
2022-08-22T00:02:30.561Z,6.07
2022-08-22T00:02:42.865Z,4.75
2022-08-22T00:03:00.889Z,4.90
2022-08-22T00:03:02.617Z,3.75
2022-08-22T00:05:25.223Z,5.68
2022-08-22T00:08:26.886Z,5.90
2022-08-22T00:11:12.348Z,6.05
2022-08-22T00:14:32.611Z,5.72
2022-08-22T00:17:35.805Z,6.07
2022-08-22T00:20:19.424Z,6.28
2022-08-22T00:23:11.904Z,6.00
2022-08-22T00:25:59.621Z,5.80
2022-08-22T00:29:00.978Z,6.13
2022-08-22T00:31:51.798Z,6.10
2022-08-22T00:34:37.004Z,6.03
2022-08-22T00:37:16.739Z,5.95
2022-08-22T00:40:53.502Z,5.55
2022-08-22T00:43:58.558Z,5.88
2022-08-22T00:47:04.519Z,6.30
2022-08-22T00:50:09.236Z,6.10
2022-08-22T00:53:31.097Z,5.95
2022-08-22T00:56:26.871Z,6.18
2022-08-22T00:59:29.297Z,5.90
2022-08-22T01:02:16.535Z,6.35
2022-08-22T01:05:31.358Z,5.93
2022-08-22T01:08:26.841Z,6.05
2022-08-22T01:11:30.502Z,5.75
2022-08-22T01:14:34.266Z,6.18
2022-08-22T01:17:29.671Z,6.32
2022-08-22T01:20:24.985Z,6.50
2022-08-22T01:23:24.290Z,5.90
2022-08-22T01:26:22.498Z,6.20
2022-08-22T01:29:48.093Z,6.10
2022-08-22T01:32:49.985Z,5.80
2022-08-22T01:35:52.825Z,5.55
2022-08-22T01:38:59.403Z,5.65
2022-08-22T01:42:10.946Z,6.28
2022-08-22T01:45:18.387Z,5.82
2022-08-22T01:48:19.016Z,6.00
2022-08-22T01:51:11.906Z,6.25
2022-08-22T01:53:48.270Z,5.43
2022-08-22T01:56:26.079Z,6.07
2022-08-22T01:59:05.449Z,5.78
2022-08-22T02:02:09.434Z,6.15
2022-08-22T02:05:03.354Z,6.25
2022-08-22T02:08:24.188Z,6.07
2022-08-22T02:11:07.450Z,6.40
2022-08-22T02:13:58.876Z,6.20
2022-08-22T02:16:59.101Z,6.10
2022-08-22T02:19:38.769Z,6.03
2022-08-22T02:22:44.565Z,5.90
2022-08-22T02:25:23.720Z,5.65
2022-08-22T02:28:14.038Z,6.40
2022-08-22T02:31:07.118Z,6.20
2022-08-22T02:33:46.624Z,6.00
2022-08-22T02:37:12.421Z,6.38
2022-08-22T02:40:08.825Z,5.80
2022-08-22T02:42:43.334Z,6.43
2022-08-22T02:46:05.466Z,6.20
2022-08-22T02:49:02.530Z,6.32
2022-08-22T02:52:09.812Z,5.85
2022-08-22T02:55:01.975Z,6.07
2022-08-22T02:57:57.041Z,6.25
2022-08-22T03:00:58.961Z,6.97
2022-08-22T03:03:36.377Z,6.82
2022-08-22T03:06:37.847Z,6.88
2022-08-22T03:09:15.197Z,6.18
2022-08-22T03:12:02.041Z,6.50
2022-08-22T03:14:50.727Z,6.93
2022-08-22T03:17:48.149Z,6.20
2022-08-22T03:20:42.927Z,6.35
2022-08-22T03:23:33.514Z,6.35
2022-08-22T03:26:33.577Z,7.35
2022-08-22T03:29:20.410Z,6.60
2022-08-22T03:32:45.215Z,5.97
2022-08-22T03:35:50.564Z,6.72
2022-08-22T03:38:49.263Z,6.68
2022-08-22T03:41:50.124Z,6.15
2022-08-22T03:44:30.394Z,6.25
2022-08-22T03:47:28.572Z,6.60
2022-08-22T03:50:45.171Z,6.35
2022-08-22T03:53:37.483Z,7.00
2022-08-22T03:56:17.662Z,6.57
2022-08-22T03:59:13.785Z,6.97
2022-08-22T04:01:56.518Z,6.97
2022-08-22T04:05:01.134Z,6.97
2022-08-22T04:08:09.932Z,7.03
2022-08-22T04:11:15.823Z,6.63
2022-08-22T04:13:51.040Z,6.78
2022-08-22T04:17:00.125Z,6.68
2022-08-22T04:19:48.655Z,6.78
2022-08-22T04:22:56.081Z,7.20
2022-08-22T04:25:49.276Z,7.28
2022-08-22T04:28:24.563Z,6.82
2022-08-22T04:31:12.348Z,7.13
2022-08-22T04:34:03.147Z,7.15
2022-08-22T04:36:46.612Z,6.30
2022-08-22T04:39:36.568Z,6.75
2022-08-22T04:42:32.188Z,6.32
2022-08-22T04:45:12.847Z,7.38
2022-08-22T04:47:54.082Z,6.90
2022-08-22T04:50:44.139Z,7.38
2022-08-22T04:53:53.973Z,6.82
2022-08-22T04:57:02.280Z,7.13
2022-08-22T04:59:31.472Z,7.00
2022-08-22T05:02:07.185Z,6.32
2022-08-22T05:05:13.481Z,6.88
2022-08-22T05:07:50.103Z,7.00
2022-08-22T05:10:41.735Z,7.28
2022-08-22T05:13:28.168Z,6.45
2022-08-22T05:16:04.404Z,6.35
2022-08-22T05:19:01.032Z,7.20
2022-08-22T05:21:36.924Z,6.93
2022-08-22T05:24:08.517Z,6.75
2022-08-22T05:26:45.320Z,6.32
2022-08-22T05:29:18.823Z,7.10
2022-08-22T05:31:57.693Z,6.95
2022-08-22T05:34:32.455Z,6.57
2022-08-22T05:37:43.781Z,7.22
2022-08-22T05:40:26.997Z,6.88
2022-08-22T05:42:58.028Z,7.05
2022-08-22T05:45:28.841Z,6.70
2022-08-22T05:48:20.639Z,6.82
2022-08-22T05:53:41.880Z,7.20
2022-08-22T05:56:31.984Z,6.93
2022-08-22T05:59:20.339Z,7.13
2022-08-22T06:02:05.235Z,7.32
2022-08-22T06:04:47.558Z,6.93
2022-08-22T06:07:28.148Z,7.10
2022-08-22T06:10:25.873Z,7.13
2022-08-22T06:13:32.686Z,7.57
2022-08-22T06:16:21.609Z,7.55
2022-08-22T06:18:51.116Z,7.47
2022-08-22T06:21:41.469Z,7.13
2022-08-22T06:24:26.421Z,8.00
2022-08-22T06:27:04.207Z,7.30
2022-08-22T06:29:50.695Z,7.32
2022-08-22T06:32:44.387Z,7.45
2022-08-22T06:35:59.718Z,7.47
2022-08-22T06:38:48.703Z,7.13
2022-08-22T06:41:16.930Z,7.30
2022-08-22T06:43:44.973Z,7.40
2022-08-22T06:46:17.115Z,7.05
2022-08-22T06:48:46.979Z,7.18
2022-08-22T06:51:17.913Z,7.30
2022-08-22T06:53:54.939Z,7.55
2022-08-22T06:56:29.917Z,6.95
2022-08-22T06:59:02.831Z,7.18
2022-08-22T07:01:36.441Z,6.65
2022-08-22T07:04:12.070Z,6.72
2022-08-22T07:06:43.533Z,7.57
2022-08-22T07:11:57.880Z,6.82
2022-08-22T07:14:44.497Z,6.47
2022-08-22T07:17:25.848Z,7.13
2022-08-22T07:20:23.116Z,6.35
2022-08-22T07:22:59.212Z,6.72
2022-08-22T07:25:28.331Z,6.72
2022-08-22T07:28:18.240Z,6.43
2022-08-22T07:31:02.943Z,6.40
2022-08-22T07:33:52.635Z,7.07
2022-08-22T07:36:32.031Z,6.57
2022-08-22T07:39:28.560Z,6.78
2022-08-22T07:41:59.857Z,6.43
2022-08-22T07:45:00.565Z,6.97
2022-08-22T07:47:49.655Z,6.93
2022-08-22T07:50:26.972Z,6.90
2022-08-22T07:53:06.034Z,7.38
2022-08-22T07:55:49.449Z,6.82
2022-08-22T07:58:19.648Z,7.30
2022-08-22T08:00:50.831Z,7.45
2022-08-22T08:05:50.494Z,6.80
2022-08-22T08:08:34.923Z,6.88
2022-08-22T08:11:03.675Z,6.75
2022-08-22T08:13:44.133Z,7.47
2022-08-22T08:16:23.528Z,7.00
2022-08-22T08:18:57.339Z,6.53
2022-08-22T08:21:49.617Z,6.72
2022-08-22T08:24:26.840Z,6.32
2022-08-22T08:27:18.114Z,7.78
2022-08-22T08:32:25.490Z,7.15
2022-08-22T08:34:54.298Z,7.05
2022-08-22T08:37:33.719Z,7.25
2022-08-22T08:40:13.421Z,6.78
2022-08-22T08:43:35.104Z,6.57
2022-08-22T08:46:14.717Z,6.72
2022-08-22T08:49:25.363Z,6.82
2022-08-22T08:52:41.009Z,6.78
2022-08-22T08:55:48.159Z,6.95
2022-08-22T08:58:43.894Z,7.07
2022-08-22T09:01:34.219Z,6.95
2022-08-22T09:04:31.919Z,6.83
2022-08-22T09:07:32.951Z,6.43
2022-08-22T09:10:46.173Z,6.63
2022-08-22T09:13:48.615Z,7.55
2022-08-22T09:16:38.549Z,7.03
2022-08-22T09:19:53.925Z,6.53
2022-08-22T09:23:20.298Z,6.35
2022-08-22T09:26:04.970Z,6.75
2022-08-22T09:28:53.675Z,6.75
2022-08-22T09:31:55.839Z,6.90
2022-08-22T09:34:43.592Z,6.32
2022-08-22T09:37:29.836Z,6.15
2022-08-22T09:40:10.498Z,5.97
2022-08-22T09:43:21.083Z,5.43
2022-08-22T09:45:55.048Z,6.00
2022-08-22T09:49:13.640Z,6.13
2022-08-22T09:52:34.151Z,5.50
2022-08-22T09:55:40.010Z,5.68
2022-08-22T09:58:51.635Z,6.47
2022-08-22T10:01:51.616Z,5.45
2022-08-22T10:04:51.864Z,5.53
2022-08-22T10:07:35.029Z,5.43
2022-08-22T10:10:21.259Z,5.40
2022-08-22T10:13:03.739Z,4.72
2022-08-22T10:15:50.270Z,4.80
2022-08-22T10:18:26.212Z,5.23
2022-08-22T10:21:45.198Z,5.63
2022-08-22T10:24:25.605Z,5.30
2022-08-22T10:27:00.177Z,4.88
2022-08-22T10:29:53.158Z,5.30
2022-08-22T10:32:51.926Z,5.30
2022-08-22T10:35:44.464Z,5.10
2022-08-22T10:38:48.064Z,5.25
2022-08-22T10:41:59.183Z,4.93
2022-08-22T10:44:56.818Z,4.65
2022-08-22T10:47:39.764Z,5.03
2022-08-22T10:50:22.544Z,4.78
2022-08-22T10:53:57.004Z,4.70
2022-08-22T10:56:40.624Z,4.90
2022-08-22T10:59:46.786Z,5.28
2022-08-22T11:02:42.276Z,5.28
2022-08-22T11:05:50.624Z,5.00
2022-08-22T11:08:48.568Z,5.47
2022-08-22T11:11:23.234Z,4.80
2022-08-22T11:14:28.581Z,4.70
2022-08-22T11:17:30.941Z,4.95
2022-08-22T11:20:19.880Z,4.50
2022-08-22T11:23:23.495Z,4.32
2022-08-22T11:26:14.827Z,4.82
2022-08-22T11:29:23.958Z,4.43
2022-08-22T11:32:09.512Z,4.65
2022-08-22T11:35:08.940Z,4.70
2022-08-22T11:38:32.868Z,4.55
2022-08-22T11:41:44.185Z,4.18
2022-08-22T11:44:53.915Z,4.35
2022-08-22T11:47:30.056Z,4.70
2022-08-22T11:50:35.221Z,4.10
2022-08-22T11:53:20.265Z,4.22
2022-08-22T11:56:05.605Z,4.60
2022-08-22T11:59:01.794Z,4.20
2022-08-22T12:02:04.246Z,4.18
2022-08-22T12:04:54.955Z,4.47
2022-08-22T12:07:37.428Z,3.90
2022-08-22T12:10:20.491Z,4.20
2022-08-22T12:13:03.580Z,4.28
2022-08-22T12:16:17.867Z,4.00
2022-08-22T12:19:06.053Z,4.32
2022-08-22T12:21:53.805Z,4.60
2022-08-22T12:25:02.689Z,4.30
2022-08-22T12:28:20.826Z,3.67
2022-08-22T12:31:20.736Z,3.78
2022-08-22T12:34:31.727Z,3.40
2022-08-22T12:37:15.802Z,3.63
2022-08-22T12:40:13.705Z,3.70
2022-08-22T12:42:51.433Z,3.80
2022-08-22T12:46:13.483Z,4.03
2022-08-22T12:49:24.511Z,4.13
2022-08-22T12:52:12.189Z,4.20
2022-08-22T12:55:16.390Z,3.92
2022-08-22T12:58:17.699Z,3.70
2022-08-22T13:00:48.863Z,3.90
2022-08-22T13:03:41.847Z,3.92
2022-08-22T13:06:42.892Z,4.22
2022-08-22T13:09:33.590Z,3.83
2022-08-22T13:12:32.384Z,4.35
2022-08-22T13:15:31.857Z,3.90
2022-08-22T13:20:58.538Z,3.83
2022-08-22T13:23:41.928Z,3.83
2022-08-22T13:26:35.783Z,4.15
2022-08-22T13:29:26.895Z,4.00
2022-08-22T13:32:01.849Z,3.65
2022-08-22T13:34:43.739Z,3.95
2022-08-22T13:37:24.423Z,3.08
2022-08-22T13:40:01.095Z,3.47
2022-08-22T13:42:33.908Z,3.97
2022-08-22T13:45:22.974Z,3.70
2022-08-22T13:48:03.607Z,3.47
2022-08-22T13:50:53.006Z,3.08
2022-08-22T13:53:39.534Z,3.75
2022-08-22T13:56:23.282Z,4.07
2022-08-22T13:58:58.739Z,4.05
2022-08-22T14:02:04.012Z,3.75
2022-08-22T14:04:39.472Z,3.40
2022-08-22T14:07:11.549Z,3.53
2022-08-22T14:12:50.100Z,3.63
2022-08-22T14:15:32.226Z,3.30
2022-08-22T14:18:32.421Z,3.55
2022-08-22T14:21:33.535Z,4.13
2022-08-22T14:24:25.786Z,3.75
2022-08-22T14:27:05.284Z,3.58
2022-08-22T14:29:45.484Z,4.13
2022-08-22T14:32:30.940Z,3.92
2022-08-22T14:35:21.495Z,3.90
2022-08-22T14:38:21.619Z,4.07
2022-08-22T14:41:25.253Z,3.80
2022-08-22T14:44:10.359Z,4.90
2022-08-22T14:47:08.405Z,3.70
2022-08-22T14:50:11.340Z,4.05
2022-08-22T14:52:48.663Z,4.22
2022-08-22T14:55:25.479Z,4.50
2022-08-22T14:58:03.298Z,4.22
2022-08-22T15:00:37.595Z,4.30
2022-08-22T15:03:38.068Z,3.97
2022-08-22T15:06:30.544Z,4.60
2022-08-22T15:09:01.053Z,5.03
2022-08-22T15:11:42.281Z,4.28
2022-08-22T15:14:27.935Z,4.07
2022-08-22T15:17:05.530Z,4.05
2022-08-22T15:19:33.498Z,4.75
2022-08-22T15:22:28.366Z,3.65
2022-08-22T15:25:02.688Z,3.78
2022-08-22T15:27:35.913Z,4.55
2022-08-22T15:30:18.830Z,4.30
2022-08-22T15:32:49.938Z,4.35
2022-08-22T15:35:31.434Z,4.75
2022-08-22T15:38:29.339Z,4.35
2022-08-22T15:41:31.563Z,4.68
2022-08-22T15:44:32.135Z,4.47
2022-08-22T15:47:31.536Z,4.40
2022-08-22T15:53:16.736Z,6.80
2022-08-22T15:56:24.093Z,4.28
2022-08-22T15:59:17.525Z,4.20
2022-08-22T16:01:54.503Z,4.30
2022-08-22T16:05:11.604Z,4.88
2022-08-22T16:07:47.237Z,4.40
2022-08-22T16:10:24.015Z,4.35
2022-08-22T16:13:32.404Z,4.88
2022-08-22T16:16:08.318Z,4.50
2022-08-22T16:18:45.176Z,4.57
2022-08-22T16:21:16.250Z,4.70
2022-08-22T16:26:31.472Z,5.05
2022-08-22T16:29:17.495Z,4.55
2022-08-22T16:31:49.011Z,4.50
2022-08-22T16:37:09.047Z,4.60
2022-08-22T16:39:44.475Z,4.65
2022-08-22T16:42:21.227Z,4.65
2022-08-22T16:45:07.230Z,4.80
2022-08-22T16:47:41.734Z,4.85
2022-08-22T16:50:41.199Z,4.45
2022-08-22T16:53:20.809Z,4.90
2022-08-22T16:56:10.844Z,5.30
2022-08-22T16:59:22.568Z,5.25
2022-08-22T17:02:37.089Z,5.05
2022-08-22T17:05:42.259Z,5.00
2022-08-22T17:08:16.670Z,5.00
2022-08-22T17:11:09.317Z,5.35
2022-08-22T17:14:13.746Z,5.40
2022-08-22T17:17:18.654Z,5.22
2022-08-22T17:20:09.716Z,5.15
2022-08-22T17:22:40.692Z,5.38
2022-08-22T17:25:53.067Z,5.65
2022-08-22T17:29:08.563Z,5.32
2022-08-22T17:32:03.756Z,6.35
2022-08-22T17:34:57.329Z,5.45
2022-08-22T17:37:58.297Z,5.20
2022-08-22T17:41:12.375Z,5.75
2022-08-22T17:44:40.888Z,5.30
2022-08-22T17:47:41.492Z,5.88
2022-08-22T17:50:46.267Z,6.20
2022-08-22T17:53:44.589Z,6.07
2022-08-22T17:56:25.634Z,5.93
2022-08-22T17:59:21.179Z,5.80
2022-08-22T18:02:11.151Z,6.07
2022-08-22T18:04:45.658Z,6.20
2022-08-22T18:07:28.860Z,5.57
2022-08-22T18:10:14.728Z,5.78
2022-08-22T18:13:06.710Z,6.38
2022-08-22T18:16:02.412Z,5.72
2022-08-22T18:19:03.722Z,6.80
2022-08-22T18:21:40.743Z,6.43
2022-08-22T18:24:12.251Z,6.28
2022-08-22T18:26:43.701Z,6.18
2022-08-22T18:29:27.777Z,6.45
2022-08-22T18:32:45.815Z,6.55
2022-08-22T18:35:24.055Z,6.72
2022-08-22T18:38:19.392Z,7.05
2022-08-22T18:41:07.857Z,6.30
2022-08-22T18:43:45.884Z,6.63
2022-08-22T18:46:44.918Z,6.38
2022-08-22T18:49:22.318Z,6.35
2022-08-22T18:52:07.599Z,6.60
2022-08-22T18:55:22.400Z,7.15
2022-08-22T18:58:31.604Z,6.53
2022-08-22T19:01:15.578Z,6.53
2022-08-22T19:04:59.675Z,6.90
2022-08-22T19:08:01.261Z,6.28
2022-08-22T19:11:14.121Z,6.97
2022-08-22T19:13:56.992Z,7.72
2022-08-22T19:17:19.449Z,7.30
2022-08-22T19:20:32.868Z,8.02
2022-08-22T19:23:36.957Z,7.22
2022-08-22T19:26:33.879Z,7.68
2022-08-22T19:29:30.135Z,7.72
2022-08-22T19:32:05.934Z,7.43
2022-08-22T19:34:46.934Z,7.53
2022-08-22T19:37:33.150Z,8.02
2022-08-22T19:40:12.103Z,7.80
2022-08-22T19:42:44.211Z,7.90
2022-08-22T19:45:29.207Z,7.45
2022-08-22T19:48:16.362Z,8.48
2022-08-22T19:50:48.985Z,8.18
2022-08-22T19:53:54.556Z,7.95
2022-08-22T19:57:01.685Z,8.75
2022-08-22T19:59:38.750Z,8.43
2022-08-22T20:02:21.792Z,8.45
2022-08-22T20:05:27.842Z,7.90
2022-08-22T20:08:48.863Z,9.18
2022-08-22T20:11:46.823Z,8.63
2022-08-22T20:14:30.355Z,7.95
2022-08-22T20:17:24.718Z,8.88
2022-08-22T20:23:21.674Z,8.65
2022-08-22T20:25:53.189Z,8.65
2022-08-22T20:28:32.908Z,8.98
2022-08-22T20:31:09.379Z,8.68
2022-08-22T20:33:46.064Z,8.93
2022-08-22T20:36:28.006Z,8.43
2022-08-22T20:39:09.954Z,9.35
2022-08-22T20:41:43.641Z,9.13
2022-08-22T20:44:38.408Z,8.40
2022-08-22T20:47:22.673Z,8.85
2022-08-22T20:50:01.961Z,8.43
2022-08-22T20:52:35.471Z,9.32
2022-08-22T20:55:11.288Z,9.93
2022-08-22T20:57:53.566Z,8.68
2022-08-22T21:00:40.396Z,8.90
2022-08-22T21:03:26.305Z,9.35
2022-08-22T21:05:54.319Z,8.13
2022-08-22T21:09:17.141Z,8.52
2022-08-22T21:11:51.248Z,9.30
2022-08-22T21:14:26.413Z,8.48
2022-08-22T21:16:54.501Z,8.80
2022-08-22T21:19:29.469Z,8.65
2022-08-22T21:22:25.970Z,8.57
2022-08-22T21:24:58.243Z,8.38
2022-08-22T21:27:30.671Z,8.35
2022-08-22T21:30:02.740Z,8.35
2022-08-22T21:32:38.250Z,8.65
2022-08-22T21:35:24.019Z,8.35
2022-08-22T21:37:52.705Z,8.90
2022-08-22T21:40:34.582Z,8.98
2022-08-22T21:43:12.149Z,8.65
2022-08-22T21:45:40.139Z,8.93
2022-08-22T21:48:38.155Z,8.52
2022-08-22T21:51:48.301Z,8.00
2022-08-22T21:54:40.523Z,8.40
2022-08-22T21:57:11.450Z,8.15
2022-08-22T21:59:52.209Z,8.40
2022-08-22T22:02:37.722Z,8.60
2022-08-22T22:05:17.897Z,8.05
2022-08-22T22:07:47.945Z,8.38
2022-08-22T22:10:20.907Z,8.32
2022-08-22T22:12:52.225Z,8.15
2022-08-22T22:15:25.342Z,7.53
2022-08-22T22:17:54.858Z,8.65
2022-08-22T22:20:26.416Z,8.15
2022-08-22T22:22:54.903Z,8.80
2022-08-22T22:25:40.127Z,9.25
2022-08-22T22:28:40.180Z,9.07
2022-08-22T22:31:08.916Z,8.63
2022-08-22T22:33:40.789Z,9.57
2022-08-22T22:36:26.939Z,8.63
2022-08-22T22:38:56.729Z,8.70
2022-08-22T22:41:25.848Z,9.25
2022-08-22T22:43:55.081Z,8.80
2022-08-22T22:46:24.227Z,9.55
2022-08-22T22:48:52.169Z,8.68
2022-08-22T22:51:20.331Z,10.00
2022-08-22T22:53:49.188Z,9.20
2022-08-22T22:56:21.761Z,9.60
2022-08-22T22:58:59.039Z,9.90
2022-08-22T23:02:03.686Z,8.85
2022-08-22T23:04:34.281Z,8.70
2022-08-22T23:07:05.701Z,10.03
2022-08-22T23:12:15.214Z,9.77
2022-08-22T23:14:43.538Z,8.77
2022-08-22T23:17:11.633Z,9.00
2022-08-22T23:19:40.522Z,9.32
2022-08-22T23:22:09.563Z,9.65
2022-08-22T23:24:39.337Z,8.73
2022-08-22T23:27:10.453Z,9.02
2022-08-22T23:29:43.648Z,8.70
2022-08-22T23:32:13.011Z,8.35
2022-08-22T23:34:46.222Z,9.13
2022-08-22T23:37:18.951Z,9.43
2022-08-22T23:39:48.938Z,9.52
2022-08-22T23:42:18.787Z,8.90
2022-08-22T23:44:47.386Z,8.82
2022-08-22T23:47:16.037Z,9.30
2022-08-22T23:49:44.662Z,9.82
2022-08-22T23:52:14.185Z,8.75
2022-08-22T23:54:42.477Z,9.52
2022-08-22T23:57:12.239Z,9.23
2022-08-22T23:59:48.038Z,9.35
